sensor_id;sensor_type;location;lat;lon;timestamp;P1;durP1;ratioP1;P2;durP2;ratioP2
39102;SDS011;24847;48.218;16.414;2023-05-10T00:03:37;2.40;;;1.20;;
39102;SDS011;24847;48.218;16.414;2023-05-10T00:08:40;1.70;;;1.08;;
39102;SDS011;24847;48.218;16.414;2023-05-10T00:13:42;1.73;;;1.08;;
39102;SDS011;24847;48.218;16.414;2023-05-10T00:18:46;1.50;;;1.17;;
39102;SDS011;24847;48.218;16.414;2023-05-10T00:23:48;1.30;;;1.08;;
39102;SDS011;24847;48.218;16.414;2023-05-10T00:28:51;1.98;;;1.20;;
39102;SDS011;24847;48.218;16.414;2023-05-10T00:33:55;2.45;;;1.27;;
39102;SDS011;24847;48.218;16.414;2023-05-10T00:38:57;1.48;;;1.38;;
39102;SDS011;24847;48.218;16.414;2023-05-10T00:44:00;3.13;;;1.33;;
39102;SDS011;24847;48.218;16.414;2023-05-10T00:49:04;1.98;;;1.50;;
39102;SDS011;24847;48.218;16.414;2023-05-10T00:54:06;1.67;;;1.45;;
39102;SDS011;24847;48.218;16.414;2023-05-10T00:59:09;1.98;;;1.35;;
39102;SDS011;24847;48.218;16.414;2023-05-10T01:04:13;2.58;;;1.30;;
39102;SDS011;24847;48.218;16.414;2023-05-10T01:09:16;2.88;;;1.40;;
39102;SDS011;24847;48.218;16.414;2023-05-10T01:14:18;2.35;;;1.63;;
39102;SDS011;24847;48.218;16.414;2023-05-10T01:19:23;2.55;;;1.40;;
39102;SDS011;24847;48.218;16.414;2023-05-10T01:24:40;1.70;;;1.27;;
39102;SDS011;24847;48.218;16.414;2023-05-10T01:36:03;2.80;;;1.25;;
39102;SDS011;24847;48.218;16.414;2023-05-10T01:41:15;2.35;;;1.50;;
39102;SDS011;24847;48.218;16.414;2023-05-10T01:46:23;2.67;;;1.33;;
39102;SDS011;24847;48.218;16.414;2023-05-10T01:51:35;2.17;;;1.55;;
39102;SDS011;24847;48.218;16.414;2023-05-10T01:56:43;2.85;;;1.60;;
39102;SDS011;24847;48.218;16.414;2023-05-10T02:01:50;1.90;;;1.48;;
39102;SDS011;24847;48.218;16.414;2023-05-10T02:06:55;1.92;;;1.63;;
39102;SDS011;24847;48.218;16.414;2023-05-10T02:11:59;2.38;;;1.67;;
39102;SDS011;24847;48.218;16.414;2023-05-10T02:17:05;1.63;;;1.38;;
39102;SDS011;24847;48.218;16.414;2023-05-10T02:22:11;2.28;;;1.60;;
39102;SDS011;24847;48.218;16.414;2023-05-10T02:27:14;3.33;;;2.10;;
39102;SDS011;24847;48.218;16.414;2023-05-10T02:32:19;2.40;;;1.60;;
39102;SDS011;24847;48.218;16.414;2023-05-10T02:37:24;2.20;;;1.70;;
39102;SDS011;24847;48.218;16.414;2023-05-10T02:42:28;1.92;;;1.52;;
39102;SDS011;24847;48.218;16.414;2023-05-10T02:47:32;2.20;;;1.55;;
39102;SDS011;24847;48.218;16.414;2023-05-10T02:52:39;2.10;;;1.88;;
39102;SDS011;24847;48.218;16.414;2023-05-10T02:57:46;2.22;;;1.98;;
39102;SDS011;24847;48.218;16.414;2023-05-10T03:02:52;2.47;;;2.00;;
39102;SDS011;24847;48.218;16.414;2023-05-10T03:07:56;1.92;;;1.70;;
39102;SDS011;24847;48.218;16.414;2023-05-10T03:13:05;2.05;;;1.83;;
39102;SDS011;24847;48.218;16.414;2023-05-10T03:18:17;5.13;;;1.92;;
39102;SDS011;24847;48.218;16.414;2023-05-10T03:23:26;2.60;;;1.80;;
39102;SDS011;24847;48.218;16.414;2023-05-10T03:28:35;2.28;;;1.98;;
39102;SDS011;24847;48.218;16.414;2023-05-10T03:33:45;2.25;;;1.88;;
39102;SDS011;24847;48.218;16.414;2023-05-10T03:38:50;2.35;;;1.83;;
39102;SDS011;24847;48.218;16.414;2023-05-10T03:43:52;2.88;;;1.85;;
39102;SDS011;24847;48.218;16.414;2023-05-10T03:48:54;3.15;;;2.10;;
39102;SDS011;24847;48.218;16.414;2023-05-10T03:53:58;3.50;;;1.95;;
39102;SDS011;24847;48.218;16.414;2023-05-10T03:59:00;3.58;;;2.13;;
39102;SDS011;24847;48.218;16.414;2023-05-10T04:04:07;2.08;;;1.83;;
39102;SDS011;24847;48.218;16.414;2023-05-10T04:09:10;2.50;;;1.95;;
39102;SDS011;24847;48.218;16.414;2023-05-10T04:14:13;2.50;;;2.30;;
39102;SDS011;24847;48.218;16.414;2023-05-10T04:19:15;3.03;;;2.03;;
39102;SDS011;24847;48.218;16.414;2023-05-10T04:24:18;3.67;;;2.70;;
39102;SDS011;24847;48.218;16.414;2023-05-10T04:29:21;2.65;;;2.20;;
39102;SDS011;24847;48.218;16.414;2023-05-10T04:34:23;2.50;;;2.00;;
39102;SDS011;24847;48.218;16.414;2023-05-10T04:39:27;2.45;;;2.00;;
39102;SDS011;24847;48.218;16.414;2023-05-10T04:44:29;3.25;;;2.13;;
39102;SDS011;24847;48.218;16.414;2023-05-10T04:49:31;2.38;;;2.17;;
39102;SDS011;24847;48.218;16.414;2023-05-10T04:54:35;3.60;;;2.33;;
39102;SDS011;24847;48.218;16.414;2023-05-10T04:59:37;3.00;;;2.58;;
39102;SDS011;24847;48.218;16.414;2023-05-10T05:04:39;3.83;;;2.40;;
39102;SDS011;24847;48.218;16.414;2023-05-10T05:09:42;4.10;;;2.25;;
39102;SDS011;24847;48.218;16.414;2023-05-10T05:14:45;3.35;;;2.33;;
39102;SDS011;24847;48.218;16.414;2023-05-10T05:19:47;2.58;;;2.17;;
39102;SDS011;24847;48.218;16.414;2023-05-10T05:24:50;2.05;;;1.85;;
39102;SDS011;24847;48.218;16.414;2023-05-10T05:29:52;2.38;;;1.95;;
39102;SDS011;24847;48.218;16.414;2023-05-10T05:34:55;2.20;;;1.88;;
39102;SDS011;24847;48.218;16.414;2023-05-10T05:39:59;3.22;;;2.38;;
39102;SDS011;24847;48.218;16.414;2023-05-10T05:45:02;3.08;;;2.47;;
39102;SDS011;24847;48.218;16.414;2023-05-10T05:50:05;3.08;;;2.00;;
39102;SDS011;24847;48.218;16.414;2023-05-10T05:55:09;2.85;;;2.47;;
39102;SDS011;24847;48.218;16.414;2023-05-10T06:00:12;3.55;;;2.33;;
39102;SDS011;24847;48.218;16.414;2023-05-10T06:05:15;3.28;;;2.28;;
39102;SDS011;24847;48.218;16.414;2023-05-10T06:10:19;3.42;;;2.17;;
39102;SDS011;24847;48.218;16.414;2023-05-10T06:15:21;3.58;;;2.33;;
39102;SDS011;24847;48.218;16.414;2023-05-10T06:20:24;3.63;;;2.25;;
39102;SDS011;24847;48.218;16.414;2023-05-10T06:25:28;3.05;;;2.35;;
39102;SDS011;24847;48.218;16.414;2023-05-10T06:30:30;2.78;;;2.20;;
39102;SDS011;24847;48.218;16.414;2023-05-10T06:35:32;2.40;;;2.13;;
39102;SDS011;24847;48.218;16.414;2023-05-10T06:40:36;2.80;;;2.25;;
39102;SDS011;24847;48.218;16.414;2023-05-10T06:45:38;2.33;;;1.98;;
39102;SDS011;24847;48.218;16.414;2023-05-10T06:50:41;2.80;;;2.35;;
39102;SDS011;24847;48.218;16.414;2023-05-10T06:55:44;3.55;;;2.35;;
39102;SDS011;24847;48.218;16.414;2023-05-10T07:00:46;4.85;;;2.88;;
39102;SDS011;24847;48.218;16.414;2023-05-10T07:05:48;3.65;;;2.92;;
39102;SDS011;24847;48.218;16.414;2023-05-10T07:10:52;3.47;;;3.00;;
39102;SDS011;24847;48.218;16.414;2023-05-10T07:15:54;4.53;;;2.55;;
39102;SDS011;24847;48.218;16.414;2023-05-10T07:20:56;4.97;;;3.20;;
39102;SDS011;24847;48.218;16.414;2023-05-10T07:26:00;3.70;;;3.00;;
39102;SDS011;24847;48.218;16.414;2023-05-10T07:31:02;3.60;;;2.70;;
39102;SDS011;24847;48.218;16.414;2023-05-10T07:36:04;3.58;;;2.45;;
39102;SDS011;24847;48.218;16.414;2023-05-10T07:41:09;4.18;;;2.72;;
39102;SDS011;24847;48.218;16.414;2023-05-10T07:46:12;4.07;;;2.80;;
39102;SDS011;24847;48.218;16.414;2023-05-10T07:51:14;3.25;;;2.95;;
39102;SDS011;24847;48.218;16.414;2023-05-10T07:56:22;3.28;;;2.97;;
39102;SDS011;24847;48.218;16.414;2023-05-10T08:01:29;4.57;;;3.08;;
39102;SDS011;24847;48.218;16.414;2023-05-10T08:06:32;4.18;;;3.15;;
39102;SDS011;24847;48.218;16.414;2023-05-10T08:11:36;3.53;;;2.92;;
39102;SDS011;24847;48.218;16.414;2023-05-10T08:16:38;3.35;;;2.78;;
39102;SDS011;24847;48.218;16.414;2023-05-10T08:21:40;3.08;;;2.75;;
39102;SDS011;24847;48.218;16.414;2023-05-10T08:26:43;2.95;;;2.75;;
39102;SDS011;24847;48.218;16.414;2023-05-10T08:31:46;2.80;;;2.35;;
39102;SDS011;24847;48.218;16.414;2023-05-10T08:36:48;4.32;;;2.47;;
39102;SDS011;24847;48.218;16.414;2023-05-10T08:41:52;3.63;;;2.38;;
39102;SDS011;24847;48.218;16.414;2023-05-10T08:47:01;2.50;;;2.17;;
39102;SDS011;24847;48.218;16.414;2023-05-10T08:52:06;4.28;;;1.73;;
39102;SDS011;24847;48.218;16.414;2023-05-10T08:57:10;1.83;;;1.73;;
39102;SDS011;24847;48.218;16.414;2023-05-10T09:02:13;2.55;;;1.63;;
39102;SDS011;24847;48.218;16.414;2023-05-10T09:07:15;4.10;;;1.80;;
39102;SDS011;24847;48.218;16.414;2023-05-10T09:12:19;2.85;;;1.30;;
39102;SDS011;24847;48.218;16.414;2023-05-10T09:17:22;6.00;;;1.30;;
39102;SDS011;24847;48.218;16.414;2023-05-10T09:22:25;1.00;;;0.90;;
39102;SDS011;24847;48.218;16.414;2023-05-10T09:27:29;3.42;;;1.40;;
39102;SDS011;24847;48.218;16.414;2023-05-10T09:32:38;1.30;;;1.20;;
39102;SDS011;24847;48.218;16.414;2023-05-10T09:37:42;4.70;;;1.65;;
39102;SDS011;24847;48.218;16.414;2023-05-10T09:42:52;3.38;;;1.15;;
39102;SDS011;24847;48.218;16.414;2023-05-10T09:52:59;1.00;;;0.85;;
39102;SDS011;24847;48.218;16.414;2023-05-10T09:58:04;1.75;;;1.13;;
39102;SDS011;24847;48.218;16.414;2023-05-10T10:03:13;1.42;;;1.00;;
39102;SDS011;24847;48.218;16.414;2023-05-10T10:08:17;1.85;;;1.00;;
39102;SDS011;24847;48.218;16.414;2023-05-10T10:13:21;0.95;;;0.77;;
39102;SDS011;24847;48.218;16.414;2023-05-10T10:18:24;1.20;;;0.90;;
39102;SDS011;24847;48.218;16.414;2023-05-10T10:23:28;1.95;;;0.80;;
39102;SDS011;24847;48.218;16.414;2023-05-10T10:28:34;0.82;;;0.70;;
39102;SDS011;24847;48.218;16.414;2023-05-10T10:33:55;1.00;;;0.80;;
39102;SDS011;24847;48.218;16.414;2023-05-10T10:39:05;1.48;;;1.10;;
39102;SDS011;24847;48.218;16.414;2023-05-10T10:44:25;1.80;;;1.60;;
39102;SDS011;24847;48.218;16.414;2023-05-10T10:49:43;3.10;;;1.90;;
39102;SDS011;24847;48.218;16.414;2023-05-10T10:54:51;2.97;;;2.30;;
39102;SDS011;24847;48.218;16.414;2023-05-10T11:05:26;1.20;;;1.00;;
39102;SDS011;24847;48.218;16.414;2023-05-10T11:10:48;1.00;;;0.98;;
39102;SDS011;24847;48.218;16.414;2023-05-10T11:16:11;1.70;;;1.00;;
39102;SDS011;24847;48.218;16.414;2023-05-10T11:21:16;1.90;;;0.98;;
39102;SDS011;24847;48.218;16.414;2023-05-10T11:26:18;3.03;;;0.80;;
39102;SDS011;24847;48.218;16.414;2023-05-10T11:31:24;1.98;;;0.82;;
39102;SDS011;24847;48.218;16.414;2023-05-10T11:36:27;1.52;;;0.90;;
39102;SDS011;24847;48.218;16.414;2023-05-10T11:41:33;3.75;;;0.98;;
39102;SDS011;24847;48.218;16.414;2023-05-10T11:46:36;1.90;;;0.90;;
39102;SDS011;24847;48.218;16.414;2023-05-10T11:51:39;1.00;;;0.80;;
39102;SDS011;24847;48.218;16.414;2023-05-10T11:56:43;2.58;;;1.05;;
39102;SDS011;24847;48.218;16.414;2023-05-10T12:01:47;1.15;;;0.93;;
39102;SDS011;24847;48.218;16.414;2023-05-10T12:06:50;1.00;;;0.90;;
39102;SDS011;24847;48.218;16.414;2023-05-10T12:11:54;1.42;;;1.00;;
39102;SDS011;24847;48.218;16.414;2023-05-10T12:16:59;4.50;;;1.00;;
39102;SDS011;24847;48.218;16.414;2023-05-10T12:22:04;1.58;;;0.90;;
39102;SDS011;24847;48.218;16.414;2023-05-10T12:27:07;1.95;;;0.90;;
39102;SDS011;24847;48.218;16.414;2023-05-10T12:32:12;2.92;;;0.90;;
39102;SDS011;24847;48.218;16.414;2023-05-10T12:37:14;1.23;;;0.90;;
39102;SDS011;24847;48.218;16.414;2023-05-10T12:42:16;1.05;;;0.80;;
39102;SDS011;24847;48.218;16.414;2023-05-10T12:47:20;0.90;;;0.82;;
39102;SDS011;24847;48.218;16.414;2023-05-10T12:52:23;1.33;;;1.02;;
39102;SDS011;24847;48.218;16.414;2023-05-10T12:57:26;2.20;;;1.25;;
39102;SDS011;24847;48.218;16.414;2023-05-10T13:02:30;2.97;;;1.25;;
39102;SDS011;24847;48.218;16.414;2023-05-10T13:07:32;1.40;;;1.30;;
39102;SDS011;24847;48.218;16.414;2023-05-10T13:12:34;2.03;;;1.40;;
39102;SDS011;24847;48.218;16.414;2023-05-10T13:17:37;1.50;;;1.40;;
39102;SDS011;24847;48.218;16.414;2023-05-10T13:22:40;1.88;;;1.58;;
39102;SDS011;24847;48.218;16.414;2023-05-10T13:27:43;2.33;;;1.55;;
39102;SDS011;24847;48.218;16.414;2023-05-10T13:32:47;1.88;;;1.50;;
39102;SDS011;24847;48.218;16.414;2023-05-10T13:37:50;1.38;;;1.27;;
39102;SDS011;24847;48.218;16.414;2023-05-10T13:42:53;2.28;;;1.20;;
39102;SDS011;24847;48.218;16.414;2023-05-10T13:47:57;1.77;;;1.42;;
39102;SDS011;24847;48.218;16.414;2023-05-10T13:52:59;1.73;;;1.20;;
39102;SDS011;24847;48.218;16.414;2023-05-10T13:58:07;3.58;;;1.70;;
39102;SDS011;24847;48.218;16.414;2023-05-10T14:03:10;2.72;;;1.10;;
39102;SDS011;24847;48.218;16.414;2023-05-10T14:08:12;2.08;;;1.02;;
39102;SDS011;24847;48.218;16.414;2023-05-10T14:13:15;2.50;;;1.00;;
39102;SDS011;24847;48.218;16.414;2023-05-10T14:18:18;1.40;;;1.30;;
39102;SDS011;24847;48.218;16.414;2023-05-10T14:23:21;1.63;;;1.15;;
39102;SDS011;24847;48.218;16.414;2023-05-10T14:28:25;1.40;;;1.10;;
39102;SDS011;24847;48.218;16.414;2023-05-10T14:33:30;1.30;;;1.05;;
39102;SDS011;24847;48.218;16.414;2023-05-10T14:38:32;1.60;;;0.88;;
39102;SDS011;24847;48.218;16.414;2023-05-10T14:43:35;1.10;;;0.93;;
39102;SDS011;24847;48.218;16.414;2023-05-10T14:48:39;1.45;;;1.05;;
39102;SDS011;24847;48.218;16.414;2023-05-10T14:53:42;2.83;;;0.90;;
39102;SDS011;24847;48.218;16.414;2023-05-10T14:58:44;1.55;;;0.85;;
39102;SDS011;24847;48.218;16.414;2023-05-10T15:03:48;1.20;;;0.90;;
39102;SDS011;24847;48.218;16.414;2023-05-10T15:08:50;1.88;;;0.80;;
39102;SDS011;24847;48.218;16.414;2023-05-10T15:13:53;1.00;;;0.80;;
39102;SDS011;24847;48.218;16.414;2023-05-10T15:18:56;1.58;;;0.90;;
39102;SDS011;24847;48.218;16.414;2023-05-10T15:23:59;1.80;;;0.90;;
39102;SDS011;24847;48.218;16.414;2023-05-10T15:29:01;2.47;;;0.93;;
39102;SDS011;24847;48.218;16.414;2023-05-10T15:34:05;1.17;;;0.95;;
39102;SDS011;24847;48.218;16.414;2023-05-10T15:39:07;1.40;;;1.10;;
39102;SDS011;24847;48.218;16.414;2023-05-10T15:44:09;0.80;;;0.70;;
39102;SDS011;24847;48.218;16.414;2023-05-10T15:49:13;1.55;;;1.45;;
39102;SDS011;24847;48.218;16.414;2023-05-10T15:54:15;1.08;;;0.98;;
39102;SDS011;24847;48.218;16.414;2023-05-10T15:59:17;2.30;;;1.40;;
39102;SDS011;24847;48.218;16.414;2023-05-10T16:04:21;3.42;;;1.20;;
39102;SDS011;24847;48.218;16.414;2023-05-10T16:09:23;1.35;;;1.10;;
39102;SDS011;24847;48.218;16.414;2023-05-10T16:14:26;0.95;;;0.80;;
39102;SDS011;24847;48.218;16.414;2023-05-10T16:19:29;1.90;;;1.70;;
39102;SDS011;24847;48.218;16.414;2023-05-10T16:24:32;1.77;;;1.10;;
39102;SDS011;24847;48.218;16.414;2023-05-10T16:29:34;3.78;;;1.10;;
39102;SDS011;24847;48.218;16.414;2023-05-10T16:34:38;1.75;;;1.30;;
39102;SDS011;24847;48.218;16.414;2023-05-10T16:39:40;2.03;;;1.40;;
39102;SDS011;24847;48.218;16.414;2023-05-10T16:44:42;2.05;;;1.30;;
39102;SDS011;24847;48.218;16.414;2023-05-10T16:49:45;2.05;;;1.50;;
39102;SDS011;24847;48.218;16.414;2023-05-10T16:54:48;2.17;;;1.40;;
39102;SDS011;24847;48.218;16.414;2023-05-10T16:59:50;1.00;;;0.90;;
39102;SDS011;24847;48.218;16.414;2023-05-10T17:04:55;2.03;;;1.17;;
39102;SDS011;24847;48.218;16.414;2023-05-10T17:09:57;1.20;;;1.00;;
39102;SDS011;24847;48.218;16.414;2023-05-10T17:14:59;0.85;;;0.70;;
39102;SDS011;24847;48.218;16.414;2023-05-10T17:20:03;2.17;;;1.10;;
39102;SDS011;24847;48.218;16.414;2023-05-10T17:25:07;3.67;;;1.58;;
39102;SDS011;24847;48.218;16.414;2023-05-10T17:30:10;4.03;;;2.25;;
39102;SDS011;24847;48.218;16.414;2023-05-10T17:35:15;3.08;;;1.42;;
39102;SDS011;24847;48.218;16.414;2023-05-10T17:40:17;1.40;;;1.00;;
39102;SDS011;24847;48.218;16.414;2023-05-10T17:45:20;0.85;;;0.80;;
39102;SDS011;24847;48.218;16.414;2023-05-10T17:50:24;1.30;;;1.13;;
39102;SDS011;24847;48.218;16.414;2023-05-10T17:55:26;0.75;;;0.75;;
39102;SDS011;24847;48.218;16.414;2023-05-10T18:00:29;1.38;;;0.80;;
39102;SDS011;24847;48.218;16.414;2023-05-10T18:05:35;2.00;;;1.00;;
39102;SDS011;24847;48.218;16.414;2023-05-10T18:10:39;1.45;;;0.95;;
39102;SDS011;24847;48.218;16.414;2023-05-10T18:15:41;1.20;;;0.95;;
39102;SDS011;24847;48.218;16.414;2023-05-10T18:20:45;3.33;;;1.13;;
39102;SDS011;24847;48.218;16.414;2023-05-10T18:25:48;2.53;;;1.20;;
39102;SDS011;24847;48.218;16.414;2023-05-10T18:30:52;1.50;;;1.10;;
39102;SDS011;24847;48.218;16.414;2023-05-10T18:35:55;1.30;;;1.05;;
39102;SDS011;24847;48.218;16.414;2023-05-10T18:40:58;1.02;;;0.90;;
39102;SDS011;24847;48.218;16.414;2023-05-10T18:46:00;1.10;;;1.00;;
39102;SDS011;24847;48.218;16.414;2023-05-10T18:51:04;1.77;;;0.90;;
39102;SDS011;24847;48.218;16.414;2023-05-10T18:56:07;1.95;;;1.10;;
39102;SDS011;24847;48.218;16.414;2023-05-10T19:01:10;1.10;;;1.00;;
39102;SDS011;24847;48.218;16.414;2023-05-10T19:06:14;2.03;;;0.93;;
39102;SDS011;24847;48.218;16.414;2023-05-10T19:11:16;1.50;;;0.95;;
39102;SDS011;24847;48.218;16.414;2023-05-10T19:16:20;3.38;;;1.30;;
39102;SDS011;24847;48.218;16.414;2023-05-10T19:21:25;1.63;;;1.27;;
39102;SDS011;24847;48.218;16.414;2023-05-10T19:26:28;1.70;;;1.50;;
39102;SDS011;24847;48.218;16.414;2023-05-10T19:31:30;2.40;;;1.30;;
39102;SDS011;24847;48.218;16.414;2023-05-10T19:36:35;1.50;;;1.23;;
39102;SDS011;24847;48.218;16.414;2023-05-10T19:41:38;1.20;;;0.98;;
39102;SDS011;24847;48.218;16.414;2023-05-10T19:46:40;1.40;;;1.25;;
39102;SDS011;24847;48.218;16.414;2023-05-10T19:51:43;1.90;;;1.25;;
39102;SDS011;24847;48.218;16.414;2023-05-10T19:56:46;1.88;;;1.10;;
39102;SDS011;24847;48.218;16.414;2023-05-10T20:01:49;2.42;;;1.27;;
39102;SDS011;24847;48.218;16.414;2023-05-10T20:06:58;1.90;;;1.30;;
39102;SDS011;24847;48.218;16.414;2023-05-10T20:17:03;1.52;;;0.90;;
39102;SDS011;24847;48.218;16.414;2023-05-10T20:22:07;1.83;;;1.23;;
39102;SDS011;24847;48.218;16.414;2023-05-10T20:27:09;2.05;;;1.17;;
39102;SDS011;24847;48.218;16.414;2023-05-10T20:32:12;1.30;;;1.20;;
39102;SDS011;24847;48.218;16.414;2023-05-10T20:37:15;2.22;;;1.27;;
39102;SDS011;24847;48.218;16.414;2023-05-10T20:42:18;1.42;;;1.10;;
39102;SDS011;24847;48.218;16.414;2023-05-10T20:47:21;2.53;;;1.17;;
39102;SDS011;24847;48.218;16.414;2023-05-10T20:52:25;2.95;;;1.55;;
39102;SDS011;24847;48.218;16.414;2023-05-10T20:57:27;3.00;;;1.08;;
39102;SDS011;24847;48.218;16.414;2023-05-10T21:02:29;2.70;;;1.50;;
39102;SDS011;24847;48.218;16.414;2023-05-10T21:07:33;2.83;;;1.67;;
39102;SDS011;24847;48.218;16.414;2023-05-10T21:12:35;1.92;;;1.40;;
39102;SDS011;24847;48.218;16.414;2023-05-10T21:17:37;1.60;;;1.13;;
39102;SDS011;24847;48.218;16.414;2023-05-10T21:22:41;4.50;;;2.90;;
39102;SDS011;24847;48.218;16.414;2023-05-10T21:27:43;2.83;;;1.95;;
39102;SDS011;24847;48.218;16.414;2023-05-10T21:32:46;1.35;;;1.25;;
39102;SDS011;24847;48.218;16.414;2023-05-10T21:37:50;1.42;;;1.30;;
39102;SDS011;24847;48.218;16.414;2023-05-10T21:42:53;1.50;;;1.40;;
39102;SDS011;24847;48.218;16.414;2023-05-10T21:47:56;1.70;;;1.50;;
39102;SDS011;24847;48.218;16.414;2023-05-10T21:52:59;2.25;;;1.42;;
39102;SDS011;24847;48.218;16.414;2023-05-10T21:58:02;1.70;;;1.50;;
39102;SDS011;24847;48.218;16.414;2023-05-10T22:03:05;1.88;;;1.20;;
39102;SDS011;24847;48.218;16.414;2023-05-10T22:08:09;1.63;;;1.52;;
39102;SDS011;24847;48.218;16.414;2023-05-10T22:13:11;2.03;;;1.83;;
39102;SDS011;24847;48.218;16.414;2023-05-10T22:18:13;2.40;;;1.88;;
39102;SDS011;24847;48.218;16.414;2023-05-10T22:23:17;1.50;;;1.40;;
39102;SDS011;24847;48.218;16.414;2023-05-10T22:28:19;1.70;;;1.50;;
39102;SDS011;24847;48.218;16.414;2023-05-10T22:33:21;1.60;;;1.50;;
39102;SDS011;24847;48.218;16.414;2023-05-10T22:38:24;1.83;;;1.60;;
39102;SDS011;24847;48.218;16.414;2023-05-10T22:43:27;2.45;;;2.25;;
39102;SDS011;24847;48.218;16.414;2023-05-10T22:48:29;1.80;;;1.65;;
39102;SDS011;24847;48.218;16.414;2023-05-10T22:53:35;1.67;;;1.52;;
39102;SDS011;24847;48.218;16.414;2023-05-10T22:58:38;3.38;;;1.30;;
39102;SDS011;24847;48.218;16.414;2023-05-10T23:03:41;1.65;;;1.27;;
39102;SDS011;24847;48.218;16.414;2023-05-10T23:08:45;3.72;;;1.50;;
39102;SDS011;24847;48.218;16.414;2023-05-10T23:13:47;2.22;;;1.40;;
39102;SDS011;24847;48.218;16.414;2023-05-10T23:18:49;1.83;;;1.30;;
39102;SDS011;24847;48.218;16.414;2023-05-10T23:23:55;3.30;;;1.27;;
39102;SDS011;24847;48.218;16.414;2023-05-10T23:28:58;3.28;;;1.25;;
39102;SDS011;24847;48.218;16.414;2023-05-10T23:34:00;1.35;;;1.25;;
39102;SDS011;24847;48.218;16.414;2023-05-10T23:39:04;2.75;;;1.35;;
39102;SDS011;24847;48.218;16.414;2023-05-10T23:44:07;1.52;;;1.40;;
39102;SDS011;24847;48.218;16.414;2023-05-10T23:49:09;1.70;;;1.40;;
39102;SDS011;24847;48.218;16.414;2023-05-10T23:54:12;1.38;;;1.27;;
39102;SDS011;24847;48.218;16.414;2023-05-10T23:59:14;1.35;;;1.25;;
